sensor_id;sensor_type;location;lat;lon;timestamp;P1;durP1;ratioP1;P2;durP2;ratioP2
18857;SDS011;9558;50.178;8.370;2022-12-07T00:01:43;3.80;;;2.70;;
18857;SDS011;9558;50.178;8.370;2022-12-07T00:06:39;3.60;;;2.88;;
18857;SDS011;9558;50.178;8.370;2022-12-07T00:09:07;9.75;;;2.55;;
18857;SDS011;9558;50.178;8.370;2022-12-07T00:11:38;6.78;;;4.18;;
18857;SDS011;9558;50.178;8.370;2022-12-07T00:16:33;3.72;;;2.17;;
18857;SDS011;9558;50.178;8.370;2022-12-07T00:19:00;4.78;;;2.90;;
18857;SDS011;9558;50.178;8.370;2022-12-07T00:21:27;5.20;;;2.80;;
18857;SDS011;9558;50.178;8.370;2022-12-07T00:23:56;6.22;;;3.00;;
18857;SDS011;9558;50.178;8.370;2022-12-07T00:28:52;3.60;;;2.15;;
18857;SDS011;9558;50.178;8.370;2022-12-07T00:31:21;4.05;;;3.08;;
18857;SDS011;9558;50.178;8.370;2022-12-07T00:33:49;3.63;;;2.80;;
18857;SDS011;9558;50.178;8.370;2022-12-07T00:36:17;6.45;;;3.20;;
18857;SDS011;9558;50.178;8.370;2022-12-07T00:38:45;5.57;;;3.30;;
18857;SDS011;9558;50.178;8.370;2022-12-07T00:41:13;4.78;;;3.35;;
18857;SDS011;9558;50.178;8.370;2022-12-07T00:43:41;7.22;;;4.03;;
18857;SDS011;9558;50.178;8.370;2022-12-07T00:46:11;10.60;;;4.22;;
18857;SDS011;9558;50.178;8.370;2022-12-07T00:48:38;7.18;;;4.85;;
18857;SDS011;9558;50.178;8.370;2022-12-07T00:51:05;5.00;;;2.70;;
18857;SDS011;9558;50.178;8.370;2022-12-07T00:53:33;7.25;;;3.05;;
18857;SDS011;9558;50.178;8.370;2022-12-07T00:56:04;7.43;;;4.15;;
18857;SDS011;9558;50.178;8.370;2022-12-07T00:58:31;8.05;;;3.40;;
18857;SDS011;9558;50.178;8.370;2022-12-07T01:00:59;5.80;;;2.72;;
18857;SDS011;9558;50.178;8.370;2022-12-07T01:03:28;6.45;;;4.65;;
18857;SDS011;9558;50.178;8.370;2022-12-07T01:05:55;5.72;;;3.50;;
18857;SDS011;9558;50.178;8.370;2022-12-07T01:08:23;5.28;;;3.10;;
18857;SDS011;9558;50.178;8.370;2022-12-07T01:10:56;8.43;;;2.92;;
18857;SDS011;9558;50.178;8.370;2022-12-07T01:13:24;6.15;;;2.33;;
18857;SDS011;9558;50.178;8.370;2022-12-07T01:15:51;6.85;;;4.93;;
18857;SDS011;9558;50.178;8.370;2022-12-07T01:18:17;4.78;;;2.13;;
18857;SDS011;9558;50.178;8.370;2022-12-07T01:20:45;5.18;;;4.15;;
18857;SDS011;9558;50.178;8.370;2022-12-07T01:23:23;6.97;;;2.60;;
18857;SDS011;9558;50.178;8.370;2022-12-07T01:25:53;5.18;;;4.13;;
18857;SDS011;9558;50.178;8.370;2022-12-07T01:28:20;3.22;;;2.20;;
18857;SDS011;9558;50.178;8.370;2022-12-07T01:30:54;8.18;;;3.50;;
18857;SDS011;9558;50.178;8.370;2022-12-07T01:35:48;4.45;;;2.70;;
18857;SDS011;9558;50.178;8.370;2022-12-07T01:40:41;5.40;;;2.67;;
18857;SDS011;9558;50.178;8.370;2022-12-07T01:43:09;7.40;;;3.97;;
18857;SDS011;9558;50.178;8.370;2022-12-07T01:45:42;24.98;;;5.97;;
18857;SDS011;9558;50.178;8.370;2022-12-07T01:48:09;17.20;;;5.10;;
18857;SDS011;9558;50.178;8.370;2022-12-07T01:50:40;4.63;;;3.22;;
18857;SDS011;9558;50.178;8.370;2022-12-07T01:53:10;5.35;;;2.53;;
18857;SDS011;9558;50.178;8.370;2022-12-07T01:55:38;3.38;;;2.75;;
18857;SDS011;9558;50.178;8.370;2022-12-07T01:58:07;4.80;;;2.60;;
18857;SDS011;9558;50.178;8.370;2022-12-07T02:00:35;5.28;;;3.67;;
18857;SDS011;9558;50.178;8.370;2022-12-07T02:03:03;4.63;;;2.92;;
18857;SDS011;9558;50.178;8.370;2022-12-07T02:05:32;5.22;;;3.13;;
18857;SDS011;9558;50.178;8.370;2022-12-07T02:08:00;2.45;;;1.83;;
18857;SDS011;9558;50.178;8.370;2022-12-07T02:10:32;4.07;;;1.92;;
18857;SDS011;9558;50.178;8.370;2022-12-07T02:13:00;5.85;;;3.38;;
18857;SDS011;9558;50.178;8.370;2022-12-07T02:15:31;4.30;;;2.35;;
18857;SDS011;9558;50.178;8.370;2022-12-07T02:18:07;6.43;;;2.75;;
18857;SDS011;9558;50.178;8.370;2022-12-07T02:20:38;5.90;;;3.25;;
18857;SDS011;9558;50.178;8.370;2022-12-07T02:26:15;4.70;;;3.00;;
18857;SDS011;9558;50.178;8.370;2022-12-07T02:31:37;4.35;;;2.22;;
18857;SDS011;9558;50.178;8.370;2022-12-07T02:34:11;5.47;;;3.58;;
18857;SDS011;9558;50.178;8.370;2022-12-07T02:36:44;4.57;;;2.85;;
18857;SDS011;9558;50.178;8.370;2022-12-07T02:39:16;6.88;;;2.90;;
18857;SDS011;9558;50.178;8.370;2022-12-07T02:41:46;5.90;;;2.67;;
18857;SDS011;9558;50.178;8.370;2022-12-07T02:44:19;3.42;;;2.67;;
18857;SDS011;9558;50.178;8.370;2022-12-07T02:46:50;4.20;;;2.45;;
18857;SDS011;9558;50.178;8.370;2022-12-07T02:49:20;3.70;;;1.85;;
18857;SDS011;9558;50.178;8.370;2022-12-07T02:51:48;6.47;;;2.10;;
18857;SDS011;9558;50.178;8.370;2022-12-07T02:54:16;4.03;;;2.75;;
18857;SDS011;9558;50.178;8.370;2022-12-07T02:56:45;4.15;;;2.83;;
18857;SDS011;9558;50.178;8.370;2022-12-07T02:59:16;2.33;;;1.92;;
18857;SDS011;9558;50.178;8.370;2022-12-07T03:01:54;5.38;;;3.13;;
18857;SDS011;9558;50.178;8.370;2022-12-07T03:04:33;6.15;;;2.47;;
18857;SDS011;9558;50.178;8.370;2022-12-07T03:07:10;6.72;;;2.10;;
18857;SDS011;9558;50.178;8.370;2022-12-07T03:09:45;6.22;;;3.00;;
18857;SDS011;9558;50.178;8.370;2022-12-07T03:12:21;9.90;;;3.97;;
18857;SDS011;9558;50.178;8.370;2022-12-07T03:14:57;5.82;;;2.30;;
18857;SDS011;9558;50.178;8.370;2022-12-07T03:17:30;4.15;;;1.73;;
18857;SDS011;9558;50.178;8.370;2022-12-07T03:20:00;5.00;;;2.53;;
18857;SDS011;9558;50.178;8.370;2022-12-07T03:22:30;3.50;;;2.15;;
18857;SDS011;9558;50.178;8.370;2022-12-07T03:25:00;4.35;;;2.08;;
18857;SDS011;9558;50.178;8.370;2022-12-07T03:27:31;4.55;;;1.92;;
18857;SDS011;9558;50.178;8.370;2022-12-07T03:30:02;7.20;;;2.13;;
18857;SDS011;9558;50.178;8.370;2022-12-07T03:32:33;5.07;;;2.33;;
18857;SDS011;9558;50.178;8.370;2022-12-07T03:35:03;7.97;;;2.03;;
18857;SDS011;9558;50.178;8.370;2022-12-07T03:37:36;3.45;;;2.50;;
18857;SDS011;9558;50.178;8.370;2022-12-07T03:40:07;3.92;;;1.73;;
18857;SDS011;9558;50.178;8.370;2022-12-07T03:42:39;3.38;;;2.05;;
18857;SDS011;9558;50.178;8.370;2022-12-07T03:45:08;2.40;;;1.75;;
18857;SDS011;9558;50.178;8.370;2022-12-07T03:47:37;2.80;;;2.00;;
18857;SDS011;9558;50.178;8.370;2022-12-07T03:50:13;3.88;;;2.17;;
18857;SDS011;9558;50.178;8.370;2022-12-07T03:52:45;4.90;;;2.95;;
18857;SDS011;9558;50.178;8.370;2022-12-07T03:55:19;4.65;;;1.73;;
18857;SDS011;9558;50.178;8.370;2022-12-07T03:57:52;3.25;;;2.75;;
18857;SDS011;9558;50.178;8.370;2022-12-07T04:00:23;4.93;;;2.35;;
18857;SDS011;9558;50.178;8.370;2022-12-07T04:02:51;6.78;;;3.17;;
18857;SDS011;9558;50.178;8.370;2022-12-07T04:05:18;2.53;;;1.55;;
18857;SDS011;9558;50.178;8.370;2022-12-07T04:07:45;4.30;;;2.55;;
18857;SDS011;9558;50.178;8.370;2022-12-07T04:10:11;4.82;;;2.78;;
18857;SDS011;9558;50.178;8.370;2022-12-07T04:12:38;3.35;;;2.08;;
18857;SDS011;9558;50.178;8.370;2022-12-07T04:15:05;2.40;;;2.08;;
18857;SDS011;9558;50.178;8.370;2022-12-07T04:17:34;3.60;;;2.05;;
18857;SDS011;9558;50.178;8.370;2022-12-07T04:20:01;3.30;;;1.90;;
18857;SDS011;9558;50.178;8.370;2022-12-07T04:22:29;5.78;;;2.58;;
18857;SDS011;9558;50.178;8.370;2022-12-07T04:24:55;4.43;;;2.50;;
18857;SDS011;9558;50.178;8.370;2022-12-07T04:27:22;7.20;;;2.55;;
18857;SDS011;9558;50.178;8.370;2022-12-07T04:29:48;5.40;;;3.78;;
18857;SDS011;9558;50.178;8.370;2022-12-07T04:32:15;4.45;;;1.88;;
18857;SDS011;9558;50.178;8.370;2022-12-07T04:34:42;4.93;;;3.03;;
18857;SDS011;9558;50.178;8.370;2022-12-07T04:37:09;5.25;;;2.72;;
18857;SDS011;9558;50.178;8.370;2022-12-07T04:39:35;2.95;;;2.38;;
18857;SDS011;9558;50.178;8.370;2022-12-07T04:42:02;4.28;;;2.53;;
18857;SDS011;9558;50.178;8.370;2022-12-07T04:44:29;9.00;;;3.40;;
18857;SDS011;9558;50.178;8.370;2022-12-07T04:46:56;4.00;;;1.83;;
18857;SDS011;9558;50.178;8.370;2022-12-07T04:49:24;4.00;;;2.28;;
18857;SDS011;9558;50.178;8.370;2022-12-07T04:51:52;5.03;;;2.78;;
18857;SDS011;9558;50.178;8.370;2022-12-07T04:54:19;4.10;;;2.80;;
18857;SDS011;9558;50.178;8.370;2022-12-07T04:56:45;2.10;;;1.92;;
18857;SDS011;9558;50.178;8.370;2022-12-07T04:59:13;5.32;;;2.17;;
18857;SDS011;9558;50.178;8.370;2022-12-07T05:01:40;6.72;;;3.35;;
18857;SDS011;9558;50.178;8.370;2022-12-07T05:04:07;6.72;;;3.38;;
18857;SDS011;9558;50.178;8.370;2022-12-07T05:06:34;6.75;;;3.90;;
18857;SDS011;9558;50.178;8.370;2022-12-07T05:09:03;5.38;;;2.83;;
18857;SDS011;9558;50.178;8.370;2022-12-07T05:11:29;4.20;;;2.00;;
18857;SDS011;9558;50.178;8.370;2022-12-07T05:14:06;4.47;;;2.53;;
18857;SDS011;9558;50.178;8.370;2022-12-07T05:16:34;6.40;;;3.83;;
18857;SDS011;9558;50.178;8.370;2022-12-07T05:19:01;2.25;;;2.05;;
18857;SDS011;9558;50.178;8.370;2022-12-07T05:21:28;5.53;;;3.00;;
18857;SDS011;9558;50.178;8.370;2022-12-07T05:23:54;3.20;;;2.20;;
18857;SDS011;9558;50.178;8.370;2022-12-07T05:26:22;2.53;;;1.95;;
18857;SDS011;9558;50.178;8.370;2022-12-07T05:28:50;4.93;;;3.00;;
18857;SDS011;9558;50.178;8.370;2022-12-07T05:31:17;6.65;;;3.45;;
18857;SDS011;9558;50.178;8.370;2022-12-07T05:33:44;5.78;;;2.30;;
18857;SDS011;9558;50.178;8.370;2022-12-07T05:36:10;9.50;;;2.63;;
18857;SDS011;9558;50.178;8.370;2022-12-07T05:38:37;4.43;;;3.25;;
18857;SDS011;9558;50.178;8.370;2022-12-07T05:41:04;5.25;;;3.25;;
18857;SDS011;9558;50.178;8.370;2022-12-07T05:43:33;5.32;;;3.35;;
18857;SDS011;9558;50.178;8.370;2022-12-07T05:45:59;9.60;;;3.30;;
18857;SDS011;9558;50.178;8.370;2022-12-07T05:48:26;4.47;;;2.05;;
18857;SDS011;9558;50.178;8.370;2022-12-07T05:50:52;5.07;;;3.35;;
18857;SDS011;9558;50.178;8.370;2022-12-07T05:53:22;4.95;;;3.17;;
18857;SDS011;9558;50.178;8.370;2022-12-07T05:55:49;5.00;;;2.55;;
18857;SDS011;9558;50.178;8.370;2022-12-07T05:58:15;7.15;;;3.83;;
18857;SDS011;9558;50.178;8.370;2022-12-07T06:01:01;2.58;;;1.85;;
18857;SDS011;9558;50.178;8.370;2022-12-07T06:03:27;6.63;;;2.75;;
18857;SDS011;9558;50.178;8.370;2022-12-07T06:05:54;3.20;;;2.70;;
18857;SDS011;9558;50.178;8.370;2022-12-07T06:08:20;5.10;;;2.78;;
18857;SDS011;9558;50.178;8.370;2022-12-07T06:10:47;7.03;;;2.72;;
18857;SDS011;9558;50.178;8.370;2022-12-07T06:13:35;2.22;;;1.98;;
18857;SDS011;9558;50.178;8.370;2022-12-07T06:16:02;3.38;;;2.15;;
18857;SDS011;9558;50.178;8.370;2022-12-07T06:18:29;2.50;;;1.92;;
18857;SDS011;9558;50.178;8.370;2022-12-07T06:20:56;3.92;;;2.67;;
18857;SDS011;9558;50.178;8.370;2022-12-07T06:23:22;6.18;;;2.70;;
18857;SDS011;9558;50.178;8.370;2022-12-07T06:25:49;4.15;;;2.20;;
18857;SDS011;9558;50.178;8.370;2022-12-07T06:28:15;3.22;;;2.67;;
18857;SDS011;9558;50.178;8.370;2022-12-07T06:30:42;7.10;;;2.58;;
18857;SDS011;9558;50.178;8.370;2022-12-07T06:33:10;4.15;;;2.47;;
18857;SDS011;9558;50.178;8.370;2022-12-07T06:35:36;4.45;;;2.17;;
18857;SDS011;9558;50.178;8.370;2022-12-07T06:38:03;3.00;;;2.15;;
18857;SDS011;9558;50.178;8.370;2022-12-07T06:40:29;5.60;;;3.33;;
18857;SDS011;9558;50.178;8.370;2022-12-07T06:42:56;3.42;;;2.08;;
18857;SDS011;9558;50.178;8.370;2022-12-07T06:45:22;4.03;;;2.78;;
18857;SDS011;9558;50.178;8.370;2022-12-07T06:47:49;2.20;;;1.75;;
18857;SDS011;9558;50.178;8.370;2022-12-07T06:50:17;7.53;;;1.95;;
18857;SDS011;9558;50.178;8.370;2022-12-07T06:52:44;3.22;;;2.22;;
18857;SDS011;9558;50.178;8.370;2022-12-07T06:55:10;3.05;;;2.05;;
18857;SDS011;9558;50.178;8.370;2022-12-07T06:57:37;1.88;;;1.77;;
18857;SDS011;9558;50.178;8.370;2022-12-07T07:00:04;5.05;;;3.13;;
18857;SDS011;9558;50.178;8.370;2022-12-07T07:02:31;5.20;;;2.03;;
18857;SDS011;9558;50.178;8.370;2022-12-07T07:04:58;3.35;;;1.95;;
18857;SDS011;9558;50.178;8.370;2022-12-07T07:07:26;2.30;;;2.08;;
18857;SDS011;9558;50.178;8.370;2022-12-07T07:09:52;3.30;;;2.65;;
18857;SDS011;9558;50.178;8.370;2022-12-07T07:12:19;2.45;;;1.67;;
18857;SDS011;9558;50.178;8.370;2022-12-07T07:14:45;4.78;;;2.38;;
18857;SDS011;9558;50.178;8.370;2022-12-07T07:17:12;5.70;;;2.53;;
18857;SDS011;9558;50.178;8.370;2022-12-07T07:19:39;1.92;;;1.25;;
18857;SDS011;9558;50.178;8.370;2022-12-07T07:22:05;1.65;;;1.50;;
18857;SDS011;9558;50.178;8.370;2022-12-07T07:24:33;18.67;;;2.50;;
18857;SDS011;9558;50.178;8.370;2022-12-07T07:26:59;3.25;;;1.92;;
18857;SDS011;9558;50.178;8.370;2022-12-07T07:29:26;3.35;;;1.73;;
18857;SDS011;9558;50.178;8.370;2022-12-07T07:31:52;4.55;;;1.85;;
18857;SDS011;9558;50.178;8.370;2022-12-07T07:34:19;2.40;;;1.40;;
18857;SDS011;9558;50.178;8.370;2022-12-07T07:36:45;4.88;;;1.88;;
18857;SDS011;9558;50.178;8.370;2022-12-07T07:39:12;1.90;;;1.67;;
18857;SDS011;9558;50.178;8.370;2022-12-07T07:41:40;1.40;;;1.30;;
18857;SDS011;9558;50.178;8.370;2022-12-07T07:44:06;4.57;;;1.92;;
18857;SDS011;9558;50.178;8.370;2022-12-07T07:46:33;6.55;;;1.00;;
18857;SDS011;9558;50.178;8.370;2022-12-07T07:49:00;1.48;;;1.23;;
18857;SDS011;9558;50.178;8.370;2022-12-07T07:51:26;1.85;;;1.75;;
18857;SDS011;9558;50.178;8.370;2022-12-07T07:53:53;1.40;;;1.00;;
18857;SDS011;9558;50.178;8.370;2022-12-07T07:56:20;2.42;;;1.63;;
18857;SDS011;9558;50.178;8.370;2022-12-07T07:58:47;5.40;;;1.15;;
18857;SDS011;9558;50.178;8.370;2022-12-07T08:01:17;3.60;;;1.75;;
18857;SDS011;9558;50.178;8.370;2022-12-07T08:03:44;1.75;;;1.45;;
18857;SDS011;9558;50.178;8.370;2022-12-07T08:06:11;1.70;;;1.27;;
18857;SDS011;9558;50.178;8.370;2022-12-07T08:08:38;2.88;;;1.25;;
18857;SDS011;9558;50.178;8.370;2022-12-07T08:11:05;4.40;;;1.58;;
18857;SDS011;9558;50.178;8.370;2022-12-07T08:13:31;1.60;;;1.48;;
18857;SDS011;9558;50.178;8.370;2022-12-07T08:15:59;2.30;;;1.08;;
18857;SDS011;9558;50.178;8.370;2022-12-07T08:18:29;10.90;;;1.45;;
18857;SDS011;9558;50.178;8.370;2022-12-07T08:20:58;2.63;;;1.27;;
18857;SDS011;9558;50.178;8.370;2022-12-07T08:23:25;2.92;;;1.65;;
18857;SDS011;9558;50.178;8.370;2022-12-07T08:25:52;2.17;;;1.67;;
18857;SDS011;9558;50.178;8.370;2022-12-07T08:28:18;4.03;;;1.48;;
18857;SDS011;9558;50.178;8.370;2022-12-07T08:30:46;2.38;;;1.67;;
18857;SDS011;9558;50.178;8.370;2022-12-07T08:33:14;1.75;;;1.27;;
18857;SDS011;9558;50.178;8.370;2022-12-07T08:35:41;2.75;;;1.23;;
18857;SDS011;9558;50.178;8.370;2022-12-07T08:38:07;2.28;;;2.05;;
18857;SDS011;9558;50.178;8.370;2022-12-07T08:40:34;4.80;;;2.65;;
18857;SDS011;9558;50.178;8.370;2022-12-07T08:43:00;4.10;;;1.88;;
18857;SDS011;9558;50.178;8.370;2022-12-07T08:45:27;2.45;;;1.65;;
18857;SDS011;9558;50.178;8.370;2022-12-07T08:47:58;1.83;;;1.50;;
18857;SDS011;9558;50.178;8.370;2022-12-07T08:50:29;1.80;;;1.17;;
18857;SDS011;9558;50.178;8.370;2022-12-07T08:52:59;1.85;;;0.60;;
18857;SDS011;9558;50.178;8.370;2022-12-07T08:57:53;1.23;;;1.13;;
18857;SDS011;9558;50.178;8.370;2022-12-07T09:00:20;2.00;;;1.40;;
18857;SDS011;9558;50.178;8.370;2022-12-07T09:02:47;4.35;;;1.85;;
18857;SDS011;9558;50.178;8.370;2022-12-07T09:05:13;3.20;;;1.20;;
18857;SDS011;9558;50.178;8.370;2022-12-07T09:07:42;2.42;;;1.83;;
18857;SDS011;9558;50.178;8.370;2022-12-07T09:10:09;1.52;;;1.23;;
18857;SDS011;9558;50.178;8.370;2022-12-07T09:12:36;1.70;;;1.33;;
18857;SDS011;9558;50.178;8.370;2022-12-07T09:15:03;2.45;;;1.52;;
18857;SDS011;9558;50.178;8.370;2022-12-07T09:17:32;1.25;;;0.90;;
18857;SDS011;9558;50.178;8.370;2022-12-07T09:19:59;2.72;;;1.83;;
18857;SDS011;9558;50.178;8.370;2022-12-07T09:22:28;1.95;;;1.30;;
18857;SDS011;9558;50.178;8.370;2022-12-07T09:24:56;2.78;;;1.55;;
18857;SDS011;9558;50.178;8.370;2022-12-07T09:27:22;2.90;;;1.60;;
18857;SDS011;9558;50.178;8.370;2022-12-07T09:29:49;4.47;;;2.33;;
18857;SDS011;9558;50.178;8.370;2022-12-07T09:32:15;1.50;;;1.23;;
18857;SDS011;9558;50.178;8.370;2022-12-07T09:34:42;1.08;;;0.98;;
18857;SDS011;9558;50.178;8.370;2022-12-07T09:37:09;2.67;;;1.90;;
18857;SDS011;9558;50.178;8.370;2022-12-07T09:39:37;1.25;;;1.15;;
18857;SDS011;9558;50.178;8.370;2022-12-07T09:42:05;2.42;;;1.88;;
18857;SDS011;9558;50.178;8.370;2022-12-07T09:44:33;2.28;;;2.08;;
18857;SDS011;9558;50.178;8.370;2022-12-07T09:47:00;2.55;;;1.58;;
18857;SDS011;9558;50.178;8.370;2022-12-07T09:49:28;2.58;;;1.77;;
18857;SDS011;9558;50.178;8.370;2022-12-07T09:52:00;2.10;;;1.15;;
18857;SDS011;9558;50.178;8.370;2022-12-07T09:54:29;2.72;;;1.45;;
18857;SDS011;9558;50.178;8.370;2022-12-07T09:56:56;1.33;;;1.13;;
18857;SDS011;9558;50.178;8.370;2022-12-07T09:59:24;2.42;;;1.42;;
18857;SDS011;9558;50.178;8.370;2022-12-07T10:01:51;3.30;;;1.42;;
18857;SDS011;9558;50.178;8.370;2022-12-07T10:04:18;12.45;;;2.38;;
18857;SDS011;9558;50.178;8.370;2022-12-07T10:06:47;3.08;;;1.17;;
18857;SDS011;9558;50.178;8.370;2022-12-07T10:09:16;3.88;;;1.83;;
18857;SDS011;9558;50.178;8.370;2022-12-07T10:12:00;4.28;;;1.25;;
18857;SDS011;9558;50.178;8.370;2022-12-07T10:14:30;0.77;;;0.77;;
18857;SDS011;9558;50.178;8.370;2022-12-07T10:16:58;1.17;;;1.08;;
18857;SDS011;9558;50.178;8.370;2022-12-07T10:19:26;0.52;;;0.45;;
18857;SDS011;9558;50.178;8.370;2022-12-07T10:22:01;1.05;;;0.70;;
18857;SDS011;9558;50.178;8.370;2022-12-07T10:24:35;3.08;;;1.00;;
18857;SDS011;9558;50.178;8.370;2022-12-07T10:27:02;8.20;;;1.20;;
18857;SDS011;9558;50.178;8.370;2022-12-07T10:29:31;3.65;;;1.00;;
18857;SDS011;9558;50.178;8.370;2022-12-07T10:31:59;0.50;;;0.50;;
18857;SDS011;9558;50.178;8.370;2022-12-07T10:34:29;1.08;;;0.80;;
18857;SDS011;9558;50.178;8.370;2022-12-07T10:37:13;1.90;;;1.48;;
18857;SDS011;9558;50.178;8.370;2022-12-07T10:39:42;0.98;;;0.75;;
18857;SDS011;9558;50.178;8.370;2022-12-07T10:42:20;5.03;;;1.33;;
18857;SDS011;9558;50.178;8.370;2022-12-07T10:45:06;1.15;;;0.82;;
18857;SDS011;9558;50.178;8.370;2022-12-07T10:47:35;1.65;;;1.33;;
18857;SDS011;9558;50.178;8.370;2022-12-07T10:56:05;1.67;;;1.38;;
18857;SDS011;9558;50.178;8.370;2022-12-07T10:58:47;3.55;;;1.65;;
18857;SDS011;9558;50.178;8.370;2022-12-07T11:01:29;2.28;;;1.05;;
18857;SDS011;9558;50.178;8.370;2022-12-07T11:04:03;1.27;;;1.02;;
18857;SDS011;9558;50.178;8.370;2022-12-07T11:06:42;1.40;;;0.98;;
18857;SDS011;9558;50.178;8.370;2022-12-07T11:09:23;1.75;;;0.70;;
18857;SDS011;9558;50.178;8.370;2022-12-07T11:12:06;2.38;;;1.17;;
18857;SDS011;9558;50.178;8.370;2022-12-07T11:14:41;1.13;;;0.75;;
18857;SDS011;9558;50.178;8.370;2022-12-07T11:17:22;1.73;;;1.38;;
18857;SDS011;9558;50.178;8.370;2022-12-07T11:20:02;2.17;;;1.15;;
18857;SDS011;9558;50.178;8.370;2022-12-07T11:22:41;2.65;;;1.20;;
18857;SDS011;9558;50.178;8.370;2022-12-07T11:25:15;1.42;;;0.77;;
18857;SDS011;9558;50.178;8.370;2022-12-07T11:27:52;2.40;;;1.17;;
18857;SDS011;9558;50.178;8.370;2022-12-07T11:30:29;2.40;;;0.90;;
18857;SDS011;9558;50.178;8.370;2022-12-07T11:33:04;1.33;;;1.08;;
18857;SDS011;9558;50.178;8.370;2022-12-07T11:35:45;0.50;;;0.32;;
18857;SDS011;9558;50.178;8.370;2022-12-07T11:38:23;1.45;;;1.13;;
18857;SDS011;9558;50.178;8.370;2022-12-07T11:40:55;1.17;;;1.08;;
18857;SDS011;9558;50.178;8.370;2022-12-07T11:43:47;0.90;;;0.80;;
18857;SDS011;9558;50.178;8.370;2022-12-07T11:46:20;1.52;;;1.00;;
18857;SDS011;9558;50.178;8.370;2022-12-07T11:48:54;1.67;;;0.93;;
18857;SDS011;9558;50.178;8.370;2022-12-07T11:51:25;0.60;;;0.57;;
18857;SDS011;9558;50.178;8.370;2022-12-07T11:53:55;1.83;;;1.00;;
18857;SDS011;9558;50.178;8.370;2022-12-07T11:56:26;0.73;;;0.60;;
18857;SDS011;9558;50.178;8.370;2022-12-07T11:58:56;0.32;;;0.32;;
18857;SDS011;9558;50.178;8.370;2022-12-07T12:04:07;7.07;;;1.77;;
18857;SDS011;9558;50.178;8.370;2022-12-07T12:06:48;1.92;;;0.47;;
18857;SDS011;9558;50.178;8.370;2022-12-07T12:09:15;2.22;;;1.13;;
18857;SDS011;9558;50.178;8.370;2022-12-07T12:11:47;0.47;;;0.43;;
18857;SDS011;9558;50.178;8.370;2022-12-07T12:14:41;0.10;;;0.10;;
18857;SDS011;9558;50.178;8.370;2022-12-07T12:17:22;1.40;;;1.02;;
18857;SDS011;9558;50.178;8.370;2022-12-07T12:20:05;1.13;;;0.47;;
18857;SDS011;9558;50.178;8.370;2022-12-07T12:22:44;1.30;;;0.85;;
18857;SDS011;9558;50.178;8.370;2022-12-07T12:25:18;0.50;;;0.40;;
18857;SDS011;9558;50.178;8.370;2022-12-07T12:27:48;0.82;;;0.82;;
18857;SDS011;9558;50.178;8.370;2022-12-07T12:30:32;1.60;;;0.57;;
18857;SDS011;9558;50.178;8.370;2022-12-07T12:33:01;1.23;;;0.80;;
18857;SDS011;9558;50.178;8.370;2022-12-07T12:35:32;0.55;;;0.55;;
18857;SDS011;9558;50.178;8.370;2022-12-07T12:41:00;7.68;;;0.63;;
18857;SDS011;9558;50.178;8.370;2022-12-07T12:43:40;0.80;;;0.60;;
18857;SDS011;9558;50.178;8.370;2022-12-07T12:46:36;1.02;;;0.45;;
18857;SDS011;9558;50.178;8.370;2022-12-07T12:52:01;4.20;;;0.90;;
18857;SDS011;9558;50.178;8.370;2022-12-07T12:55:18;0.40;;;0.40;;
18857;SDS011;9558;50.178;8.370;2022-12-07T13:03:54;0.40;;;0.20;;
18857;SDS011;9558;50.178;8.370;2022-12-07T13:06:31;2.15;;;0.55;;
18857;SDS011;9558;50.178;8.370;2022-12-07T13:09:04;1.13;;;0.57;;
18857;SDS011;9558;50.178;8.370;2022-12-07T13:11:44;0.80;;;0.45;;
18857;SDS011;9558;50.178;8.370;2022-12-07T13:14:37;1.92;;;0.77;;
18857;SDS011;9558;50.178;8.370;2022-12-07T13:17:07;0.63;;;0.30;;
18857;SDS011;9558;50.178;8.370;2022-12-07T13:25:21;3.33;;;0.77;;
18857;SDS011;9558;50.178;8.370;2022-12-07T13:27:57;0.55;;;0.52;;
18857;SDS011;9558;50.178;8.370;2022-12-07T13:30:27;1.83;;;0.55;;
18857;SDS011;9558;50.178;8.370;2022-12-07T13:32:56;1.58;;;0.50;;
18857;SDS011;9558;50.178;8.370;2022-12-07T13:35:28;0.68;;;0.45;;
18857;SDS011;9558;50.178;8.370;2022-12-07T13:37:59;1.70;;;0.85;;
18857;SDS011;9558;50.178;8.370;2022-12-07T13:40:30;0.55;;;0.52;;
18857;SDS011;9558;50.178;8.370;2022-12-07T13:42:57;5.47;;;0.70;;
18857;SDS011;9558;50.178;8.370;2022-12-07T13:45:25;0.57;;;0.57;;
18857;SDS011;9558;50.178;8.370;2022-12-07T13:48:14;0.63;;;0.45;;
18857;SDS011;9558;50.178;8.370;2022-12-07T13:50:51;1.35;;;0.50;;
18857;SDS011;9558;50.178;8.370;2022-12-07T13:53:19;0.10;;;0.10;;
18857;SDS011;9558;50.178;8.370;2022-12-07T13:55:47;3.63;;;0.35;;
18857;SDS011;9558;50.178;8.370;2022-12-07T13:58:14;1.63;;;0.50;;
18857;SDS011;9558;50.178;8.370;2022-12-07T14:00:41;1.35;;;0.57;;
18857;SDS011;9558;50.178;8.370;2022-12-07T14:03:28;1.80;;;1.10;;
18857;SDS011;9558;50.178;8.370;2022-12-07T14:06:04;0.20;;;0.20;;
18857;SDS011;9558;50.178;8.370;2022-12-07T14:08:33;0.43;;;0.43;;
18857;SDS011;9558;50.178;8.370;2022-12-07T14:11:01;0.45;;;0.43;;
18857;SDS011;9558;50.178;8.370;2022-12-07T14:13:29;1.48;;;0.52;;
18857;SDS011;9558;50.178;8.370;2022-12-07T14:15:59;0.60;;;0.60;;
18857;SDS011;9558;50.178;8.370;2022-12-07T14:18:26;0.35;;;0.35;;
18857;SDS011;9558;50.178;8.370;2022-12-07T14:21:02;0.60;;;0.60;;
18857;SDS011;9558;50.178;8.370;2022-12-07T14:23:30;2.20;;;0.60;;
18857;SDS011;9558;50.178;8.370;2022-12-07T14:26:05;4.90;;;1.52;;
18857;SDS011;9558;50.178;8.370;2022-12-07T14:28:34;0.60;;;0.60;;
18857;SDS011;9558;50.178;8.370;2022-12-07T14:31:03;6.60;;;3.08;;
18857;SDS011;9558;50.178;8.370;2022-12-07T14:33:34;0.40;;;0.25;;
18857;SDS011;9558;50.178;8.370;2022-12-07T14:36:00;1.25;;;0.63;;
18857;SDS011;9558;50.178;8.370;2022-12-07T14:38:27;3.80;;;0.57;;
18857;SDS011;9558;50.178;8.370;2022-12-07T14:40:53;2.65;;;0.70;;
18857;SDS011;9558;50.178;8.370;2022-12-07T14:43:43;0.82;;;0.40;;
18857;SDS011;9558;50.178;8.370;2022-12-07T14:46:09;0.28;;;0.28;;
18857;SDS011;9558;50.178;8.370;2022-12-07T14:48:36;0.20;;;0.20;;
18857;SDS011;9558;50.178;8.370;2022-12-07T14:51:02;0.20;;;0.20;;
18857;SDS011;9558;50.178;8.370;2022-12-07T14:55:59;0.60;;;0.50;;
18857;SDS011;9558;50.178;8.370;2022-12-07T14:58:26;0.30;;;0.20;;
18857;SDS011;9558;50.178;8.370;2022-12-07T15:00:54;0.35;;;0.35;;
18857;SDS011;9558;50.178;8.370;2022-12-07T15:03:20;0.85;;;0.55;;
18857;SDS011;9558;50.178;8.370;2022-12-07T15:05:46;0.30;;;0.30;;
18857;SDS011;9558;50.178;8.370;2022-12-07T15:08:13;0.60;;;0.47;;
18857;SDS011;9558;50.178;8.370;2022-12-07T15:10:40;0.30;;;0.30;;
18857;SDS011;9558;50.178;8.370;2022-12-07T15:13:07;0.65;;;0.43;;
18857;SDS011;9558;50.178;8.370;2022-12-07T15:15:51;0.50;;;0.32;;
18857;SDS011;9558;50.178;8.370;2022-12-07T15:18:20;0.55;;;0.55;;
18857;SDS011;9558;50.178;8.370;2022-12-07T15:23:14;2.35;;;1.23;;
18857;SDS011;9558;50.178;8.370;2022-12-07T15:25:41;0.93;;;0.40;;
18857;SDS011;9558;50.178;8.370;2022-12-07T15:28:08;0.85;;;0.50;;
18857;SDS011;9558;50.178;8.370;2022-12-07T15:30:36;1.05;;;0.88;;
18857;SDS011;9558;50.178;8.370;2022-12-07T15:33:04;1.92;;;0.80;;
18857;SDS011;9558;50.178;8.370;2022-12-07T15:35:30;1.05;;;0.90;;
18857;SDS011;9558;50.178;8.370;2022-12-07T15:37:57;2.25;;;0.68;;
18857;SDS011;9558;50.178;8.370;2022-12-07T15:40:23;0.57;;;0.32;;
18857;SDS011;9558;50.178;8.370;2022-12-07T15:42:50;2.47;;;0.60;;
18857;SDS011;9558;50.178;8.370;2022-12-07T15:45:16;0.13;;;0.13;;
18857;SDS011;9558;50.178;8.370;2022-12-07T15:47:43;1.90;;;1.17;;
18857;SDS011;9558;50.178;8.370;2022-12-07T15:50:12;1.83;;;1.00;;
18857;SDS011;9558;50.178;8.370;2022-12-07T15:52:40;2.58;;;0.68;;
18857;SDS011;9558;50.178;8.370;2022-12-07T15:55:07;0.32;;;0.32;;
18857;SDS011;9558;50.178;8.370;2022-12-07T15:57:36;7.97;;;0.75;;
18857;SDS011;9558;50.178;8.370;2022-12-07T16:00:04;0.88;;;0.38;;
18857;SDS011;9558;50.178;8.370;2022-12-07T16:02:31;6.32;;;0.30;;
18857;SDS011;9558;50.178;8.370;2022-12-07T16:04:58;0.63;;;0.50;;
18857;SDS011;9558;50.178;8.370;2022-12-07T16:07:25;1.02;;;0.60;;
18857;SDS011;9558;50.178;8.370;2022-12-07T16:09:52;0.40;;;0.40;;